createdAt,value
2023-05-06T00:00:31.432Z,9.68
2023-05-06T00:03:15.605Z,8.95
2023-05-06T00:05:45.884Z,9.65
2023-05-06T00:08:14.338Z,9.68
2023-05-06T00:10:42.428Z,9.23
2023-05-06T00:13:11.040Z,9.27
2023-05-06T00:15:40.483Z,9.35
2023-05-06T00:18:08.963Z,10.25
2023-05-06T00:20:38.474Z,11.30
2023-05-06T00:23:06.906Z,10.02
2023-05-06T00:25:34.999Z,9.50
2023-05-06T00:28:03.348Z,9.38
2023-05-06T00:30:31.626Z,9.50
2023-05-06T00:33:00.060Z,9.45
2023-05-06T00:35:28.306Z,9.95
2023-05-06T00:37:59.505Z,10.38
2023-05-06T00:40:27.803Z,10.70
2023-05-06T00:42:56.142Z,11.48
2023-05-06T00:45:25.156Z,10.90
2023-05-06T00:47:53.799Z,11.82
2023-05-06T00:50:22.365Z,11.88
2023-05-06T00:52:51.414Z,12.07
2023-05-06T00:55:21.961Z,12.70
2023-05-06T00:57:50.527Z,12.45
2023-05-06T01:03:18.648Z,13.52
2023-05-06T01:05:52.531Z,12.38
2023-05-06T01:08:27.156Z,11.77
2023-05-06T01:11:00.960Z,11.57
2023-05-06T01:13:35.181Z,11.25
2023-05-06T01:16:04.690Z,11.43
2023-05-06T01:18:33.989Z,12.27
2023-05-06T01:21:03.322Z,12.52
2023-05-06T01:23:51.538Z,12.10
2023-05-06T01:26:19.875Z,11.40
2023-05-06T01:28:47.973Z,11.25
2023-05-06T01:31:24.065Z,11.23
2023-05-06T01:34:00.771Z,10.55
2023-05-06T01:36:33.563Z,11.63
2023-05-06T01:39:11.734Z,10.50
2023-05-06T01:41:41.230Z,10.65
2023-05-06T01:44:09.643Z,11.32
2023-05-06T01:46:38.120Z,11.38
2023-05-06T01:49:08.092Z,10.88
2023-05-06T01:51:36.443Z,11.07
2023-05-06T01:54:05.960Z,10.75
2023-05-06T01:56:34.403Z,10.55
2023-05-06T01:59:02.441Z,10.52
2023-05-06T02:01:30.837Z,10.75
2023-05-06T02:03:59.171Z,10.52
2023-05-06T02:06:27.854Z,11.65
2023-05-06T02:08:55.938Z,10.90
2023-05-06T02:11:25.744Z,11.50
2023-05-06T02:13:54.964Z,11.70
2023-05-06T02:16:23.586Z,11.27
2023-05-06T02:18:51.676Z,10.38
2023-05-06T02:21:20.023Z,11.90
2023-05-06T02:23:48.313Z,11.13
2023-05-06T02:26:16.888Z,11.25
2023-05-06T02:28:46.360Z,11.38
2023-05-06T02:31:15.868Z,10.65
2023-05-06T02:33:44.750Z,10.75
2023-05-06T02:36:13.115Z,10.90
2023-05-06T02:38:41.322Z,11.02
2023-05-06T02:41:10.546Z,10.35
2023-05-06T02:43:38.701Z,10.13
2023-05-06T02:46:08.585Z,9.80
2023-05-06T02:48:36.753Z,10.15
2023-05-06T02:51:06.190Z,10.98
2023-05-06T02:53:34.469Z,11.63
2023-05-06T02:56:02.846Z,10.85
2023-05-06T02:58:30.944Z,10.23
2023-05-06T03:00:59.389Z,10.32
2023-05-06T03:03:28.864Z,10.30
2023-05-06T03:05:57.212Z,9.73
2023-05-06T03:08:25.509Z,10.70
2023-05-06T03:10:53.857Z,11.23
2023-05-06T03:13:22.090Z,10.50
2023-05-06T03:15:53.777Z,10.93
2023-05-06T03:18:22.067Z,11.20
2023-05-06T03:20:51.854Z,10.55
2023-05-06T03:23:19.961Z,10.40
2023-05-06T03:25:48.444Z,9.93
2023-05-06T03:28:16.556Z,9.93
2023-05-06T03:30:44.929Z,10.23
2023-05-06T03:33:13.043Z,9.80
2023-05-06T03:35:41.706Z,10.48
2023-05-06T03:38:11.381Z,10.32
2023-05-06T03:40:40.079Z,10.13
2023-05-06T03:43:08.186Z,10.75
2023-05-06T03:45:36.640Z,10.50
2023-05-06T03:48:04.979Z,10.50
2023-05-06T03:50:33.359Z,10.90
2023-05-06T03:53:01.496Z,9.75
2023-05-06T03:55:31.299Z,11.32
2023-05-06T03:57:59.349Z,10.73
2023-05-06T04:00:27.748Z,11.27
2023-05-06T04:02:55.898Z,11.30
2023-05-06T04:05:24.284Z,10.07
2023-05-06T04:07:52.391Z,10.48
2023-05-06T04:10:21.433Z,10.13
2023-05-06T04:12:50.982Z,9.73
2023-05-06T04:15:19.629Z,9.95
2023-05-06T04:17:47.996Z,8.82
2023-05-06T04:20:16.894Z,9.75
2023-05-06T04:22:44.992Z,9.65
2023-05-06T04:25:13.543Z,8.90
2023-05-06T04:27:41.779Z,8.45
2023-05-06T04:30:13.246Z,8.80
2023-05-06T04:32:41.547Z,9.32
2023-05-06T04:35:10.772Z,8.50
2023-05-06T04:37:39.106Z,8.88
2023-05-06T04:40:09.213Z,8.27
2023-05-06T04:42:38.001Z,7.63
2023-05-06T04:45:07.428Z,9.50
2023-05-06T04:47:37.184Z,8.88
2023-05-06T04:50:06.267Z,8.65
2023-05-06T04:52:34.837Z,8.05
2023-05-06T04:55:03.192Z,7.75
2023-05-06T04:57:31.846Z,8.00
2023-05-06T05:00:00.265Z,7.80
2023-05-06T05:02:28.402Z,7.93
2023-05-06T05:04:58.189Z,8.48
2023-05-06T05:07:26.314Z,8.48
2023-05-06T05:09:54.660Z,8.80
2023-05-06T05:12:22.755Z,8.90
2023-05-06T05:14:51.180Z,9.68
2023-05-06T05:17:19.266Z,9.32
2023-05-06T05:19:47.590Z,9.32
2023-05-06T05:22:17.193Z,9.10
2023-05-06T05:24:45.694Z,9.27
2023-05-06T05:27:13.977Z,9.27
2023-05-06T05:29:42.343Z,9.20
2023-05-06T05:32:10.409Z,8.82
2023-05-06T05:34:38.796Z,9.27
2023-05-06T05:37:06.857Z,9.23
2023-05-06T05:39:36.609Z,10.07
2023-05-06T05:42:04.921Z,9.38
2023-05-06T05:44:33.317Z,9.68
2023-05-06T05:47:01.394Z,9.38
2023-05-06T05:49:30.027Z,9.68
2023-05-06T05:51:58.154Z,8.68
2023-05-06T05:54:26.733Z,9.40
2023-05-06T05:56:56.289Z,8.43
2023-05-06T05:59:24.649Z,7.57
2023-05-06T06:01:52.779Z,8.50
2023-05-06T06:04:21.334Z,8.55
2023-05-06T06:06:49.503Z,8.10
2023-05-06T06:09:17.886Z,7.60
2023-05-06T06:11:45.977Z,7.55
2023-05-06T06:14:15.700Z,8.88
2023-05-06T06:16:43.963Z,7.97
2023-05-06T06:19:12.490Z,8.50
2023-05-06T06:21:40.658Z,8.60
2023-05-06T06:24:09.154Z,9.18
2023-05-06T06:26:37.337Z,8.93
2023-05-06T06:29:05.698Z,8.63
2023-05-06T06:31:36.269Z,8.45
2023-05-06T06:34:06.539Z,7.78
2023-05-06T06:36:34.753Z,7.30
2023-05-06T06:39:03.132Z,8.02
2023-05-06T06:41:31.450Z,7.90
2023-05-06T06:43:59.901Z,7.25
2023-05-06T06:46:28.170Z,7.57
2023-05-06T06:48:57.873Z,7.20
2023-05-06T06:51:25.992Z,7.47
2023-05-06T06:53:54.340Z,7.53
2023-05-06T06:56:23.032Z,7.20
2023-05-06T06:58:53.253Z,7.57
2023-05-06T07:01:21.896Z,7.75
2023-05-06T07:03:50.401Z,6.57
2023-05-06T07:06:19.851Z,7.32
2023-05-06T07:08:48.354Z,7.85
2023-05-06T07:11:16.625Z,6.82
2023-05-06T07:13:44.981Z,7.45
2023-05-06T07:16:13.139Z,7.45
2023-05-06T07:18:41.494Z,7.30
2023-05-06T07:21:09.568Z,6.90
2023-05-06T07:23:39.589Z,8.32
2023-05-06T07:26:07.704Z,6.90
2023-05-06T07:28:36.071Z,7.65
2023-05-06T07:31:04.294Z,6.70
2023-05-06T07:33:32.684Z,7.28
2023-05-06T07:36:00.887Z,7.78
2023-05-06T07:38:29.337Z,7.30
2023-05-06T07:40:58.872Z,6.82
2023-05-06T07:43:27.221Z,7.72
2023-05-06T07:46:02.334Z,7.10
2023-05-06T07:48:31.357Z,7.22
2023-05-06T07:50:59.595Z,7.60
2023-05-06T07:53:28.402Z,7.47
2023-05-06T07:56:02.036Z,7.03
2023-05-06T07:58:30.989Z,6.68
2023-05-06T08:00:59.939Z,6.55
2023-05-06T08:03:28.446Z,7.25
2023-05-06T08:05:56.790Z,7.05
2023-05-06T08:08:27.790Z,7.18
2023-05-06T08:10:55.945Z,6.47
2023-05-06T08:13:25.824Z,6.60
2023-05-06T08:15:54.068Z,7.05
2023-05-06T08:18:23.314Z,7.82
2023-05-06T08:20:52.070Z,6.75
2023-05-06T08:23:21.302Z,5.90
2023-05-06T08:25:49.398Z,6.60
2023-05-06T08:28:17.854Z,6.47
2023-05-06T08:30:48.495Z,7.10
2023-05-06T08:33:16.975Z,6.90
2023-05-06T08:35:45.861Z,6.25
2023-05-06T08:38:14.246Z,7.30
2023-05-06T08:40:45.149Z,6.85
2023-05-06T08:43:15.065Z,7.88
2023-05-06T08:45:43.259Z,7.82
2023-05-06T08:48:13.069Z,6.90
2023-05-06T08:50:43.503Z,6.32
2023-05-06T08:53:13.299Z,6.88
2023-05-06T08:55:42.922Z,6.57
2023-05-06T08:58:12.783Z,6.00
2023-05-06T09:00:41.285Z,7.40
2023-05-06T09:03:09.558Z,6.05
2023-05-06T09:05:40.150Z,6.53
2023-05-06T09:08:08.267Z,6.47
2023-05-06T09:10:44.546Z,6.50
2023-05-06T09:13:14.018Z,8.85
2023-05-06T09:15:42.904Z,15.75
2023-05-06T09:18:11.764Z,22.25
2023-05-06T09:20:43.648Z,7.57
2023-05-06T09:23:13.108Z,6.20
2023-05-06T09:25:42.367Z,49.20
2023-05-06T09:28:12.091Z,6.53
2023-05-06T09:30:41.663Z,5.57
2023-05-06T09:33:10.272Z,9.48
2023-05-06T09:35:40.077Z,8.75
2023-05-06T09:46:18.201Z,8.63
2023-05-06T09:48:47.816Z,6.03
2023-05-06T09:51:16.224Z,6.15
2023-05-06T09:53:46.418Z,6.47
2023-05-06T09:56:16.073Z,6.43
2023-05-06T09:58:44.788Z,5.75
2023-05-06T10:01:19.235Z,6.43
2023-05-06T10:03:55.899Z,6.05
2023-05-06T10:06:24.558Z,6.15
2023-05-06T10:08:54.106Z,6.10
2023-05-06T10:11:22.934Z,5.13
2023-05-06T10:13:51.427Z,6.43
2023-05-06T10:16:20.010Z,6.18
2023-05-06T10:18:49.789Z,6.90
2023-05-06T10:21:23.710Z,6.18
2023-05-06T10:23:56.401Z,5.43
2023-05-06T10:26:24.673Z,6.72
2023-05-06T10:28:54.864Z,8.05
2023-05-06T10:31:22.975Z,7.45
2023-05-06T10:33:53.007Z,7.90
2023-05-06T10:36:24.336Z,8.95
2023-05-06T10:38:56.424Z,9.85
2023-05-06T10:43:57.212Z,6.60
2023-05-06T10:46:26.163Z,6.53
2023-05-06T10:49:20.341Z,7.95
2023-05-06T10:51:50.006Z,8.10
2023-05-06T10:54:25.435Z,8.20
2023-05-06T10:57:10.121Z,9.77
2023-05-06T10:59:38.530Z,10.00
2023-05-06T11:02:10.735Z,10.00
2023-05-06T11:04:40.305Z,10.73
2023-05-06T11:07:11.645Z,10.75
2023-05-06T11:09:56.483Z,10.73
2023-05-06T11:12:48.932Z,12.60
2023-05-06T11:15:35.965Z,11.93
2023-05-06T11:18:43.312Z,11.93
2023-05-06T11:21:40.057Z,14.30
2023-05-06T11:24:13.246Z,14.75
2023-05-06T11:26:43.098Z,15.82
2023-05-06T11:29:11.277Z,14.88
2023-05-06T11:31:43.952Z,15.48
2023-05-06T11:34:14.689Z,16.55
2023-05-06T11:36:51.862Z,17.08
2023-05-06T11:39:21.416Z,17.80
2023-05-06T11:41:49.801Z,18.17
2023-05-06T11:44:28.859Z,19.27
2023-05-06T11:46:58.569Z,18.30
2023-05-06T11:49:27.416Z,20.08
2023-05-06T11:51:56.924Z,18.83
2023-05-06T11:54:27.660Z,19.20
2023-05-06T11:56:58.012Z,18.17
2023-05-06T11:59:31.489Z,16.73
2023-05-06T12:02:01.309Z,17.02
2023-05-06T12:04:29.741Z,17.83
2023-05-06T12:06:58.203Z,18.63
2023-05-06T12:09:27.824Z,18.35
2023-05-06T12:11:56.305Z,18.20
2023-05-06T12:14:24.557Z,19.63
2023-05-06T12:16:55.964Z,19.15
2023-05-06T12:19:26.536Z,19.70
2023-05-06T12:21:55.645Z,19.45
2023-05-06T12:24:31.079Z,19.60
2023-05-06T12:26:59.534Z,21.45
2023-05-06T12:29:27.590Z,20.42
2023-05-06T12:32:09.545Z,22.23
2023-05-06T12:34:38.319Z,21.80
2023-05-06T12:37:07.275Z,22.20
2023-05-06T12:39:37.554Z,23.70
2023-05-06T12:42:06.387Z,23.77
2023-05-06T12:44:36.410Z,24.08
2023-05-06T12:47:07.377Z,23.05
2023-05-06T12:49:49.104Z,24.25
2023-05-06T12:52:18.218Z,23.58
2023-05-06T12:54:47.876Z,23.40
2023-05-06T12:57:16.624Z,24.80
2023-05-06T12:59:45.564Z,22.30
2023-05-06T13:02:14.458Z,24.65
2023-05-06T13:04:44.208Z,24.48
2023-05-06T13:07:12.968Z,23.38
2023-05-06T13:09:41.093Z,23.77
2023-05-06T13:12:10.834Z,23.25
2023-05-06T13:14:40.243Z,25.50
2023-05-06T13:17:09.104Z,35.78
2023-05-06T13:19:37.349Z,33.33
2023-05-06T13:22:05.826Z,29.88
2023-05-06T13:24:33.938Z,26.10
2023-05-06T13:27:02.432Z,25.50
2023-05-06T13:29:31.982Z,25.90
2023-05-06T13:32:00.707Z,27.75
2023-05-06T13:34:29.228Z,28.48
2023-05-06T13:36:57.563Z,31.98
2023-05-06T13:39:26.082Z,25.27
2023-05-06T13:41:54.580Z,26.63
2023-05-06T13:44:24.449Z,29.65
2023-05-06T13:46:54.308Z,24.63
2023-05-06T13:49:22.518Z,25.60
2023-05-06T13:51:50.927Z,23.73
2023-05-06T13:54:22.286Z,23.85
2023-05-06T13:56:51.290Z,23.67
2023-05-06T13:59:19.386Z,21.85
2023-05-06T14:01:49.917Z,21.10
2023-05-06T14:04:19.575Z,21.75
2023-05-06T14:06:48.221Z,21.70
2023-05-06T14:09:16.665Z,25.73
2023-05-06T14:11:45.034Z,21.98
2023-05-06T14:14:13.108Z,31.48
2023-05-06T14:16:41.565Z,25.10
2023-05-06T14:19:09.701Z,28.05
2023-05-06T14:21:39.374Z,32.42
2023-05-06T14:24:08.182Z,30.60
2023-05-06T14:26:36.762Z,30.58
2023-05-06T14:29:04.845Z,36.92
2023-05-06T14:31:34.708Z,39.33
2023-05-06T14:34:03.519Z,53.05
2023-05-06T14:36:31.896Z,35.35
2023-05-06T14:39:01.450Z,52.97
2023-05-06T14:41:30.236Z,28.92
2023-05-06T14:43:58.359Z,33.13
2023-05-06T14:46:29.152Z,26.67
2023-05-06T14:48:58.014Z,28.00
2023-05-06T14:51:26.387Z,29.63
2023-05-06T14:53:54.463Z,30.65
2023-05-06T14:56:24.266Z,27.58
2023-05-06T14:58:52.391Z,27.38
2023-05-06T15:01:21.105Z,28.98
2023-05-06T15:03:50.678Z,28.08
2023-05-06T15:06:19.034Z,30.65
2023-05-06T15:08:47.220Z,34.28
2023-05-06T15:11:15.805Z,35.03
2023-05-06T15:13:45.245Z,35.63
2023-05-06T15:16:13.622Z,33.05
2023-05-06T15:18:42.784Z,34.75
2023-05-06T15:21:13.201Z,33.83
2023-05-06T15:23:41.588Z,33.80
2023-05-06T15:26:09.958Z,36.33
2023-05-06T15:28:38.084Z,32.65
2023-05-06T15:31:08.354Z,32.70
2023-05-06T15:33:36.654Z,32.45
2023-05-06T15:36:06.101Z,34.20
2023-05-06T15:38:59.646Z,34.67
2023-05-06T15:41:29.377Z,33.70
2023-05-06T15:43:59.214Z,34.35
2023-05-06T15:46:29.583Z,33.78
2023-05-06T15:49:22.417Z,33.13
2023-05-06T15:51:46.301Z,31.33
2023-05-06T15:54:15.423Z,32.75
2023-05-06T15:56:43.791Z,32.40
2023-05-06T15:59:12.218Z,32.10
2023-05-06T16:02:24.677Z,44.13
2023-05-06T16:04:32.147Z,29.25
2023-05-06T16:07:00.718Z,29.15
2023-05-06T16:09:28.808Z,31.13
2023-05-06T16:11:57.496Z,33.35
2023-05-06T16:14:25.574Z,31.55
2023-05-06T16:16:55.328Z,30.67
2023-05-06T16:19:23.490Z,30.58
2023-05-06T16:21:52.935Z,28.63
2023-05-06T16:24:21.027Z,28.77
2023-05-06T16:26:49.423Z,29.10
2023-05-06T16:29:20.311Z,28.15
2023-05-06T16:31:49.252Z,29.90
2023-05-06T16:34:18.911Z,32.47
2023-05-06T16:36:47.233Z,30.40
2023-05-06T16:39:15.348Z,30.35
2023-05-06T16:41:43.706Z,31.13
2023-05-06T16:44:11.776Z,29.63
2023-05-06T16:46:40.187Z,29.17
2023-05-06T16:49:08.504Z,28.45
2023-05-06T16:51:38.607Z,27.55
2023-05-06T16:54:06.744Z,26.23
2023-05-06T16:56:48.151Z,28.35
2023-05-06T16:59:21.890Z,27.08
2023-05-06T17:01:50.868Z,27.50
2023-05-06T17:04:18.984Z,27.63
2023-05-06T17:06:49.197Z,29.75
2023-05-06T17:09:17.388Z,29.75
2023-05-06T17:11:45.771Z,29.40
2023-05-06T17:14:13.940Z,29.77
2023-05-06T17:16:43.133Z,30.67
2023-05-06T17:19:11.763Z,30.40
2023-05-06T17:21:40.214Z,29.85
2023-05-06T17:24:09.963Z,29.92
2023-05-06T17:26:40.201Z,29.33
2023-05-06T17:29:08.826Z,31.08
2023-05-06T17:31:37.407Z,31.00
2023-05-06T17:34:05.518Z,29.58
2023-05-06T17:36:33.968Z,30.58
2023-05-06T17:39:06.030Z,30.98
2023-05-06T17:41:35.767Z,30.73
2023-05-06T17:44:03.846Z,30.42
2023-05-06T17:46:33.252Z,32.70
2023-05-06T17:49:01.530Z,32.58
2023-05-06T17:51:29.861Z,34.20
2023-05-06T17:53:58.821Z,34.67
2023-05-06T17:56:27.591Z,35.08
2023-05-06T17:59:01.203Z,38.92
2023-05-06T18:01:29.938Z,39.85
2023-05-06T18:03:58.483Z,41.10
2023-05-06T18:06:28.711Z,41.85
2023-05-06T18:08:56.936Z,41.28
2023-05-06T18:11:25.617Z,38.13
2023-05-06T18:13:53.894Z,40.95
2023-05-06T18:16:23.784Z,40.55
2023-05-06T18:18:51.968Z,40.47
2023-05-06T18:21:20.370Z,39.22
2023-05-06T18:23:49.845Z,37.70
2023-05-06T18:26:39.485Z,38.38
2023-05-06T18:29:08.201Z,35.75
2023-05-06T18:31:37.936Z,35.47
2023-05-06T18:34:06.094Z,35.72
2023-05-06T18:36:35.491Z,32.75
2023-05-06T18:39:04.465Z,33.78
2023-05-06T18:41:32.873Z,34.08
2023-05-06T18:44:02.513Z,37.78
2023-05-06T18:46:31.213Z,37.08
2023-05-06T18:49:01.512Z,34.83
2023-05-06T18:51:29.926Z,34.65
2023-05-06T18:53:58.028Z,33.67
2023-05-06T18:56:26.398Z,32.42
2023-05-06T18:58:54.499Z,31.13
2023-05-06T19:01:22.927Z,35.22
2023-05-06T19:03:51.726Z,30.83
2023-05-06T19:06:21.616Z,31.23
2023-05-06T19:08:49.741Z,30.77
2023-05-06T19:11:19.326Z,31.35
2023-05-06T19:13:47.799Z,31.33
2023-05-06T19:16:16.357Z,29.50
2023-05-06T19:18:44.656Z,28.60
2023-05-06T19:21:13.656Z,29.85
2023-05-06T19:23:43.097Z,28.58
2023-05-06T19:26:11.967Z,27.23
2023-05-06T19:28:40.990Z,29.25
2023-05-06T19:31:10.397Z,31.02
2023-05-06T19:33:38.861Z,28.85
2023-05-06T19:36:07.750Z,28.83
2023-05-06T19:38:35.912Z,30.08
2023-05-06T19:41:06.077Z,29.42
2023-05-06T19:43:34.263Z,29.67
2023-05-06T19:46:02.667Z,29.70
2023-05-06T19:48:31.129Z,29.45
2023-05-06T19:50:59.551Z,30.65
2023-05-06T19:53:27.675Z,33.42
2023-05-06T19:55:57.796Z,33.45
2023-05-06T19:58:27.245Z,32.95
2023-05-06T20:00:55.574Z,33.47
2023-05-06T20:03:23.794Z,31.95
2023-05-06T20:05:52.229Z,30.38
2023-05-06T20:08:20.364Z,31.10
2023-05-06T20:10:49.398Z,30.98
2023-05-06T20:13:17.982Z,31.88
2023-05-06T20:15:48.374Z,32.88
2023-05-06T20:18:16.590Z,32.47
2023-05-06T20:20:45.058Z,32.85
2023-05-06T20:23:13.148Z,32.38
2023-05-06T20:25:41.520Z,31.63
2023-05-06T20:28:09.855Z,31.40
2023-05-06T20:30:38.921Z,29.83
2023-05-06T20:33:09.548Z,31.23
2023-05-06T20:35:40.371Z,29.17
2023-05-06T20:38:09.266Z,30.73
2023-05-06T20:40:37.853Z,30.30
2023-05-06T20:43:05.997Z,28.75
2023-05-06T20:45:34.596Z,28.75
2023-05-06T20:48:02.810Z,30.75
2023-05-06T20:50:32.668Z,28.08
2023-05-06T20:53:02.345Z,28.80
2023-05-06T20:55:31.301Z,30.55
2023-05-06T20:57:59.654Z,27.92
2023-05-06T21:00:28.061Z,28.75
2023-05-06T21:02:56.428Z,29.65
2023-05-06T21:05:25.028Z,29.40
2023-05-06T21:07:54.544Z,29.15
2023-05-06T21:10:22.964Z,29.13
2023-05-06T21:12:51.653Z,29.05
2023-05-06T21:15:20.034Z,29.05
2023-05-06T21:17:48.247Z,26.90
2023-05-06T21:20:16.964Z,25.50
2023-05-06T21:22:45.107Z,23.08
2023-05-06T21:25:14.930Z,21.58
2023-05-06T21:27:43.266Z,21.67
2023-05-06T21:30:12.143Z,20.55
2023-05-06T21:32:40.461Z,20.27
2023-05-06T21:35:09.597Z,17.23
2023-05-06T21:37:37.844Z,17.70
2023-05-06T21:40:07.152Z,17.35
2023-05-06T21:42:36.604Z,16.13
2023-05-06T21:45:05.593Z,16.92
2023-05-06T21:47:33.885Z,16.75
2023-05-06T21:50:02.281Z,17.67
2023-05-06T21:52:30.423Z,18.20
2023-05-06T21:54:58.937Z,17.63
2023-05-06T21:57:27.023Z,18.50
2023-05-06T21:59:56.788Z,19.15
2023-05-06T22:02:25.083Z,17.75
2023-05-06T22:04:53.734Z,17.92
2023-05-06T22:07:22.177Z,16.42
2023-05-06T22:09:50.625Z,17.00
2023-05-06T22:12:18.710Z,15.93
2023-05-06T22:14:47.149Z,16.30
2023-05-06T22:17:16.649Z,18.10
2023-05-06T22:19:45.025Z,17.42
2023-05-06T22:22:13.584Z,17.15
2023-05-06T22:24:42.058Z,16.35
2023-05-06T22:27:10.252Z,17.48
2023-05-06T22:29:38.584Z,18.35
2023-05-06T22:32:07.201Z,16.88
2023-05-06T22:34:37.258Z,16.88
2023-05-06T22:37:09.730Z,18.55
2023-05-06T22:39:39.071Z,18.50
2023-05-06T22:42:07.177Z,18.10
2023-05-06T22:44:35.541Z,18.00
2023-05-06T22:47:03.646Z,19.13
2023-05-06T22:49:32.819Z,19.30
2023-05-06T22:52:02.296Z,18.98
2023-05-06T22:54:30.627Z,18.58
2023-05-06T22:56:58.795Z,19.17
2023-05-06T22:59:27.236Z,19.00
2023-05-06T23:01:55.954Z,19.20
2023-05-06T23:04:24.334Z,20.13
2023-05-06T23:06:52.398Z,19.52
2023-05-06T23:09:22.128Z,20.42
2023-05-06T23:11:50.223Z,22.75
2023-05-06T23:14:19.376Z,20.55
2023-05-06T23:16:47.672Z,20.90
2023-05-06T23:19:16.079Z,20.52
2023-05-06T23:21:44.478Z,20.45
2023-05-06T23:24:13.034Z,20.45
2023-05-06T23:26:42.474Z,20.67
2023-05-06T23:29:10.934Z,23.23
2023-05-06T23:31:39.024Z,22.83
2023-05-06T23:34:07.366Z,22.40
2023-05-06T23:36:35.579Z,24.15
2023-05-06T23:39:04.113Z,22.08
2023-05-06T23:41:32.209Z,24.13
2023-05-06T23:44:01.934Z,23.27
2023-05-06T23:46:30.094Z,22.60
2023-05-06T23:48:58.462Z,22.63
2023-05-06T23:51:26.628Z,23.52
2023-05-06T23:53:55.063Z,21.95
2023-05-06T23:56:23.132Z,22.75
2023-05-06T23:58:51.586Z,22.65
